createdAt,value
2023-01-31T00:22:29.375Z,4.60
2023-01-31T00:59:45.395Z,4.90
2023-01-31T01:37:03.572Z,3.30
2023-01-31T01:55:40.613Z,2.20
2023-01-31T02:32:59.233Z,4.20
2023-01-31T02:51:37.444Z,2.20
2023-01-31T03:10:16.942Z,1.20
2023-01-31T03:28:56.069Z,1.00
2023-01-31T03:47:34.697Z,1.50
2023-01-31T04:06:15.953Z,1.40
2023-01-31T04:24:52.913Z,1.70
2023-01-31T05:39:24.585Z,3.70
2023-01-31T05:58:01.391Z,3.50
2023-01-31T06:16:39.825Z,4.30
2023-01-31T06:35:19.081Z,5.80
2023-01-31T06:53:56.871Z,4.20
2023-01-31T07:12:36.340Z,5.30
2023-01-31T07:31:16.096Z,5.60
2023-01-31T07:49:57.856Z,6.00
2023-01-31T08:08:37.666Z,5.00
2023-01-31T08:27:16.385Z,4.60
2023-01-31T08:45:57.879Z,5.60
2023-01-31T09:04:39.091Z,5.10
2023-01-31T09:23:20.810Z,5.50
2023-01-31T09:42:08.235Z,6.00
2023-01-31T10:00:58.693Z,2.50
2023-01-31T10:19:47.495Z,4.20
2023-01-31T10:57:30.265Z,1.60
2023-01-31T11:16:17.508Z,1.30
2023-01-31T11:35:02.021Z,1.30
2023-01-31T12:12:30.060Z,0.30
2023-01-31T13:08:25.462Z,0.60
2023-01-31T13:27:08.444Z,0.80
2023-01-31T13:45:59.855Z,0.60
2023-01-31T14:04:44.752Z,1.10
2023-01-31T14:23:22.165Z,1.00
2023-01-31T14:41:59.165Z,1.30
2023-01-31T15:00:29.629Z,3.70
2023-01-31T15:18:53.699Z,1.20
2023-01-31T15:37:06.312Z,1.20
2023-01-31T15:55:34.978Z,1.60
2023-01-31T16:14:07.737Z,2.60
2023-01-31T16:32:43.009Z,1.90
2023-01-31T16:51:17.980Z,4.10
2023-01-31T17:09:54.543Z,1.70
2023-01-31T17:28:32.230Z,2.50
2023-01-31T17:47:05.634Z,2.20
2023-01-31T18:05:42.408Z,8.00
2023-01-31T19:01:33.700Z,5.80
2023-01-31T19:20:12.631Z,2.80
2023-01-31T19:38:53.255Z,4.60
2023-01-31T19:57:27.245Z,8.00
2023-01-31T20:16:04.226Z,4.10
2023-01-31T20:34:40.349Z,7.50
2023-01-31T20:53:17.889Z,3.80
2023-01-31T21:30:31.626Z,4.60
2023-01-31T21:49:08.752Z,5.20
2023-01-31T22:26:25.053Z,6.80
2023-01-31T22:45:03.388Z,4.60
2023-01-31T23:22:20.875Z,2.90
2023-01-31T23:40:55.629Z,3.00
2023-01-31T23:59:32.456Z,2.40
